sensor_id;sensor_type;location;lat;lon;timestamp;pressure;altitude;pressure_sealevel;temperature;humidity
65997;BME280;52765;52.258;21.052;2023-11-21T00:02:22;99952.03;;;1.25;100.00
65997;BME280;52765;52.258;21.052;2023-11-21T00:04:48;99953.34;;;1.19;100.00
65997;BME280;52765;52.258;21.052;2023-11-21T00:07:14;99959.16;;;1.11;100.00
65997;BME280;52765;52.258;21.052;2023-11-21T00:09:40;99961.72;;;1.13;100.00
65997;BME280;52765;52.258;21.052;2023-11-21T00:12:07;99958.63;;;1.06;100.00
65997;BME280;52765;52.258;21.052;2023-11-21T00:14:38;99959.72;;;1.04;100.00
65997;BME280;52765;52.258;21.052;2023-11-21T00:17:04;99961.81;;;0.99;100.00
65997;BME280;52765;52.258;21.052;2023-11-21T00:19:32;99973.91;;;1.03;100.00
65997;BME280;52765;52.258;21.052;2023-11-21T00:21:58;99972.97;;;1.04;100.00
65997;BME280;52765;52.258;21.052;2023-11-21T00:24:25;99985.16;;;1.06;100.00
65997;BME280;52765;52.258;21.052;2023-11-21T00:26:51;99972.75;;;1.07;100.00
65997;BME280;52765;52.258;21.052;2023-11-21T00:29:26;99976.38;;;1.06;100.00
65997;BME280;52765;52.258;21.052;2023-11-21T00:31:52;99976.47;;;1.04;100.00
65997;BME280;52765;52.258;21.052;2023-11-21T00:34:18;99987.91;;;1.05;100.00
65997;BME280;52765;52.258;21.052;2023-11-21T00:36:43;99994.94;;;1.06;100.00
65997;BME280;52765;52.258;21.052;2023-11-21T00:39:11;99994.50;;;0.99;100.00
65997;BME280;52765;52.258;21.052;2023-11-21T00:41:37;99994.59;;;0.98;100.00
65997;BME280;52765;52.258;21.052;2023-11-21T00:44:08;99990.28;;;0.97;100.00
65997;BME280;52765;52.258;21.052;2023-11-21T00:46:34;99991.63;;;0.89;100.00
65997;BME280;52765;52.258;21.052;2023-11-21T00:48:59;99998.94;;;0.86;100.00
65997;BME280;52765;52.258;21.052;2023-11-21T00:51:25;99991.72;;;0.88;100.00
65997;BME280;52765;52.258;21.052;2023-11-21T00:53:51;99991.19;;;0.83;100.00
65997;BME280;52765;52.258;21.052;2023-11-21T00:56:18;99990.66;;;0.78;100.00
65997;BME280;52765;52.258;21.052;2023-11-21T00:58:44;99994.88;;;0.67;100.00
65997;BME280;52765;52.258;21.052;2023-11-21T01:01:12;99996.13;;;0.62;100.00
65997;BME280;52765;52.258;21.052;2023-11-21T01:03:37;99984.97;;;0.57;100.00
65997;BME280;52765;52.258;21.052;2023-11-21T01:06:03;99995.28;;;0.61;100.00
65997;BME280;52765;52.258;21.052;2023-11-21T01:08:32;99997.63;;;0.66;100.00
65997;BME280;52765;52.258;21.052;2023-11-21T01:10:58;100001.97;;;0.67;100.00
65997;BME280;52765;52.258;21.052;2023-11-21T01:13:28;99995.31;;;0.74;100.00
65997;BME280;52765;52.258;21.052;2023-11-21T01:15:57;100007.63;;;0.75;100.00
65997;BME280;52765;52.258;21.052;2023-11-21T01:18:28;100005.06;;;0.73;100.00
65997;BME280;52765;52.258;21.052;2023-11-21T01:20:55;99997.31;;;0.70;100.00
65997;BME280;52765;52.258;21.052;2023-11-21T01:23:22;100012.50;;;0.81;100.00
65997;BME280;52765;52.258;21.052;2023-11-21T01:25:48;100009.94;;;0.80;100.00
65997;BME280;52765;52.258;21.052;2023-11-21T01:28:13;100012.94;;;0.75;100.00
65997;BME280;52765;52.258;21.052;2023-11-21T01:30:39;100012.69;;;0.78;100.00
65997;BME280;52765;52.258;21.052;2023-11-21T01:33:04;100015.88;;;0.83;100.00
65997;BME280;52765;52.258;21.052;2023-11-21T01:35:30;100023.97;;;0.82;100.00
65997;BME280;52765;52.258;21.052;2023-11-21T01:37:55;100025.34;;;0.87;100.00
65997;BME280;52765;52.258;21.052;2023-11-21T01:40:21;100022.38;;;0.79;100.00
65997;BME280;52765;52.258;21.052;2023-11-21T01:42:47;100017.47;;;0.73;100.00
65997;BME280;52765;52.258;21.052;2023-11-21T01:45:15;100019.47;;;0.69;100.00
65997;BME280;52765;52.258;21.052;2023-11-21T01:47:42;100013.72;;;0.63;100.00
65997;BME280;52765;52.258;21.052;2023-11-21T01:50:15;100018.63;;;0.69;100.00
65997;BME280;52765;52.258;21.052;2023-11-21T01:52:42;100020.97;;;0.73;100.00
65997;BME280;52765;52.258;21.052;2023-11-21T01:55:09;100025.63;;;0.70;100.00
65997;BME280;52765;52.258;21.052;2023-11-21T01:57:37;100022.22;;;0.68;100.00
65997;BME280;52765;52.258;21.052;2023-11-21T02:00:06;100029.03;;;0.72;100.00
65997;BME280;52765;52.258;21.052;2023-11-21T02:02:48;100021.28;;;0.69;100.00
65997;BME280;52765;52.258;21.052;2023-11-21T02:05:20;100022.66;;;0.74;100.00
65997;BME280;52765;52.258;21.052;2023-11-21T02:07:47;100022.56;;;0.76;100.00
65997;BME280;52765;52.258;21.052;2023-11-21T02:10:17;100018.97;;;0.77;100.00
65997;BME280;52765;52.258;21.052;2023-11-21T02:12:48;100016.53;;;0.74;100.00
65997;BME280;52765;52.258;21.052;2023-11-21T02:15:16;100021.63;;;0.77;100.00
65997;BME280;52765;52.258;21.052;2023-11-21T02:17:49;100018.63;;;0.69;100.00
65997;BME280;52765;52.258;21.052;2023-11-21T02:20:17;100028.59;;;0.65;100.00
65997;BME280;52765;52.258;21.052;2023-11-21T02:22:55;100024.13;;;0.66;100.00
65997;BME280;52765;52.258;21.052;2023-11-21T02:25:28;100040.59;;;0.71;100.00
65997;BME280;52765;52.258;21.052;2023-11-21T02:28:00;100044.84;;;0.73;100.00
65997;BME280;52765;52.258;21.052;2023-11-21T02:30:26;100037.94;;;0.71;100.00
65997;BME280;52765;52.258;21.052;2023-11-21T02:32:57;100042.41;;;0.70;100.00
65997;BME280;52765;52.258;21.052;2023-11-21T02:35:23;100034.09;;;0.62;100.00
65997;BME280;52765;52.258;21.052;2023-11-21T02:37:49;100041.78;;;0.52;100.00
65997;BME280;52765;52.258;21.052;2023-11-21T02:40:15;100044.84;;;0.46;100.00
65997;BME280;52765;52.258;21.052;2023-11-21T02:42:48;100034.59;;;0.54;100.00
65997;BME280;52765;52.258;21.052;2023-11-21T02:45:17;100048.09;;;0.64;100.00
65997;BME280;52765;52.258;21.052;2023-11-21T02:47:43;100054.47;;;0.62;100.00
65997;BME280;52765;52.258;21.052;2023-11-21T02:50:12;100046.69;;;0.59;100.00
65997;BME280;52765;52.258;21.052;2023-11-21T02:52:38;100043.16;;;0.45;100.00
65997;BME280;52765;52.258;21.052;2023-11-21T02:55:06;100048.34;;;0.47;100.00
65997;BME280;52765;52.258;21.052;2023-11-21T02:57:32;100049.94;;;0.49;100.00
65997;BME280;52765;52.258;21.052;2023-11-21T02:59:59;100041.16;;;0.49;100.00
65997;BME280;52765;52.258;21.052;2023-11-21T03:02:25;100055.16;;;0.51;100.00
65997;BME280;52765;52.258;21.052;2023-11-21T03:04:51;100057.34;;;0.44;100.00
65997;BME280;52765;52.258;21.052;2023-11-21T03:07:17;100059.16;;;0.44;100.00
65997;BME280;52765;52.258;21.052;2023-11-21T03:09:45;100044.47;;;0.38;100.00
65997;BME280;52765;52.258;21.052;2023-11-21T03:12:14;100057.44;;;0.43;100.00
65997;BME280;52765;52.258;21.052;2023-11-21T03:14:40;100059.25;;;0.42;100.00
65997;BME280;52765;52.258;21.052;2023-11-21T03:17:05;100063.81;;;0.40;100.00
65997;BME280;52765;52.258;21.052;2023-11-21T03:19:32;100061.81;;;0.44;100.00
65997;BME280;52765;52.258;21.052;2023-11-21T03:21:57;100060.00;;;0.44;100.00
65997;BME280;52765;52.258;21.052;2023-11-21T03:24:24;100066.03;;;0.46;100.00
65997;BME280;52765;52.258;21.052;2023-11-21T03:26:50;100071.75;;;0.40;100.00
65997;BME280;52765;52.258;21.052;2023-11-21T03:29:19;100067.13;;;0.29;100.00
65997;BME280;52765;52.258;21.052;2023-11-21T03:31:44;100064.19;;;0.34;100.00
65997;BME280;52765;52.258;21.052;2023-11-21T03:34:16;100069.50;;;0.34;100.00
65997;BME280;52765;52.258;21.052;2023-11-21T03:36:41;100074.44;;;0.26;100.00
65997;BME280;52765;52.258;21.052;2023-11-21T03:39:07;100072.63;;;0.26;100.00
65997;BME280;52765;52.258;21.052;2023-11-21T03:41:32;100070.75;;;0.14;100.00
65997;BME280;52765;52.258;21.052;2023-11-21T03:43:59;100073.13;;;0.18;100.00
65997;BME280;52765;52.258;21.052;2023-11-21T03:46:25;100075.00;;;0.16;100.00
65997;BME280;52765;52.258;21.052;2023-11-21T03:48:51;100078.00;;;0.25;100.00
65997;BME280;52765;52.258;21.052;2023-11-21T03:51:16;100082.28;;;0.27;100.00
65997;BME280;52765;52.258;21.052;2023-11-21T03:53:42;100084.84;;;0.29;100.00
65997;BME280;52765;52.258;21.052;2023-11-21T03:56:08;100090.69;;;0.34;100.00
65997;BME280;52765;52.258;21.052;2023-11-21T03:58:33;100094.19;;;0.34;100.00
65997;BME280;52765;52.258;21.052;2023-11-21T04:00:59;100095.44;;;0.29;100.00
65997;BME280;52765;52.258;21.052;2023-11-21T04:03:25;100096.47;;;0.26;100.00
65997;BME280;52765;52.258;21.052;2023-11-21T04:05:50;100100.31;;;0.35;100.00
65997;BME280;52765;52.258;21.052;2023-11-21T04:08:16;100097.47;;;0.38;100.00
65997;BME280;52765;52.258;21.052;2023-11-21T04:10:41;100095.69;;;0.39;100.00
65997;BME280;52765;52.258;21.052;2023-11-21T04:13:07;100103.84;;;0.35;100.00
65997;BME280;52765;52.258;21.052;2023-11-21T04:15:33;100105.84;;;0.32;100.00
65997;BME280;52765;52.258;21.052;2023-11-21T04:18:01;100098.72;;;0.32;100.00
65997;BME280;52765;52.258;21.052;2023-11-21T04:20:29;100105.63;;;0.35;100.00
65997;BME280;52765;52.258;21.052;2023-11-21T04:22:55;100105.25;;;0.41;100.00
65997;BME280;52765;52.258;21.052;2023-11-21T04:25:20;100106.59;;;0.34;100.00
65997;BME280;52765;52.258;21.052;2023-11-21T04:27:48;100116.53;;;0.30;100.00
65997;BME280;52765;52.258;21.052;2023-11-21T04:30:15;100108.13;;;0.24;100.00
65997;BME280;52765;52.258;21.052;2023-11-21T04:32:41;100107.34;;;0.22;100.00
65997;BME280;52765;52.258;21.052;2023-11-21T04:35:07;100105.75;;;0.19;100.00
65997;BME280;52765;52.258;21.052;2023-11-21T04:37:36;100104.59;;;0.23;100.00
65997;BME280;52765;52.258;21.052;2023-11-21T04:40:04;100113.63;;;0.21;100.00
65997;BME280;52765;52.258;21.052;2023-11-21T04:42:36;100114.16;;;0.11;100.00
65997;BME280;52765;52.258;21.052;2023-11-21T04:45:03;100125.56;;;0.13;100.00
65997;BME280;52765;52.258;21.052;2023-11-21T04:47:40;100122.69;;;0.16;100.00
65997;BME280;52765;52.258;21.052;2023-11-21T04:50:09;100133.00;;;0.21;100.00
65997;BME280;52765;52.258;21.052;2023-11-21T04:52:34;100135.19;;;0.14;100.00
65997;BME280;52765;52.258;21.052;2023-11-21T04:55:00;100127.41;;;0.11;100.00
65997;BME280;52765;52.258;21.052;2023-11-21T04:57:27;100133.97;;;0.20;100.00
65997;BME280;52765;52.258;21.052;2023-11-21T04:59:54;100134.34;;;0.14;100.00
65997;BME280;52765;52.258;21.052;2023-11-21T05:02:19;100140.66;;;0.11;100.00
65997;BME280;52765;52.258;21.052;2023-11-21T05:04:47;100142.19;;;0.15;100.00
65997;BME280;52765;52.258;21.052;2023-11-21T05:07:12;100138.97;;;0.10;100.00
65997;BME280;52765;52.258;21.052;2023-11-21T05:09:42;100142.84;;;0.19;100.00
65997;BME280;52765;52.258;21.052;2023-11-21T05:12:09;100140.09;;;0.21;100.00
65997;BME280;52765;52.258;21.052;2023-11-21T05:14:35;100147.88;;;0.24;100.00
65997;BME280;52765;52.258;21.052;2023-11-21T05:17:01;100153.91;;;0.26;100.00
65997;BME280;52765;52.258;21.052;2023-11-21T05:19:26;100168.75;;;0.28;100.00
65997;BME280;52765;52.258;21.052;2023-11-21T05:21:52;100150.13;;;0.15;100.00
65997;BME280;52765;52.258;21.052;2023-11-21T05:24:18;100162.72;;;0.12;100.00
65997;BME280;52765;52.258;21.052;2023-11-21T05:26:43;100158.47;;;0.09;100.00
65997;BME280;52765;52.258;21.052;2023-11-21T05:29:09;100158.44;;;-0.05;100.00
65997;BME280;52765;52.258;21.052;2023-11-21T05:31:36;100162.53;;;0.01;100.00
65997;BME280;52765;52.258;21.052;2023-11-21T05:34:03;100161.78;;;-0.02;100.00
65997;BME280;52765;52.258;21.052;2023-11-21T05:36:31;100165.19;;;0.01;100.00
65997;BME280;52765;52.258;21.052;2023-11-21T05:38:57;100178.91;;;0.07;100.00
65997;BME280;52765;52.258;21.052;2023-11-21T05:41:22;100173.31;;;0.12;100.00
65997;BME280;52765;52.258;21.052;2023-11-21T05:43:48;100164.59;;;0.10;100.00
65997;BME280;52765;52.258;21.052;2023-11-21T05:46:14;100185.16;;;0.21;100.00
65997;BME280;52765;52.258;21.052;2023-11-21T05:48:42;100185.31;;;0.17;100.00
65997;BME280;52765;52.258;21.052;2023-11-21T05:51:08;100182.78;;;0.16;100.00
65997;BME280;52765;52.258;21.052;2023-11-21T05:53:34;100183.03;;;0.11;100.00
65997;BME280;52765;52.258;21.052;2023-11-21T05:56:00;100185.78;;;0.10;100.00
65997;BME280;52765;52.258;21.052;2023-11-21T05:58:29;100193.38;;;0.16;100.00
65997;BME280;52765;52.258;21.052;2023-11-21T06:00:58;100196.00;;;0.16;100.00
65997;BME280;52765;52.258;21.052;2023-11-21T06:03:26;100192.16;;;0.07;100.00
65997;BME280;52765;52.258;21.052;2023-11-21T06:05:54;100199.81;;;0.12;100.00
65997;BME280;52765;52.258;21.052;2023-11-21T06:08:20;100203.13;;;0.15;100.00
65997;BME280;52765;52.258;21.052;2023-11-21T06:10:48;100193.38;;;0.16;100.00
65997;BME280;52765;52.258;21.052;2023-11-21T06:13:16;100190.44;;;-0.08;100.00
65997;BME280;52765;52.258;21.052;2023-11-21T06:15:45;100217.88;;;0.05;100.00
65997;BME280;52765;52.258;21.052;2023-11-21T06:18:13;100224.19;;;0.03;100.00
65997;BME280;52765;52.258;21.052;2023-11-21T06:20:39;100209.31;;;-0.14;100.00
65997;BME280;52765;52.258;21.052;2023-11-21T06:23:07;100222.09;;;-0.07;100.00
65997;BME280;52765;52.258;21.052;2023-11-21T06:25:34;100197.75;;;-0.28;100.00
65997;BME280;52765;52.258;21.052;2023-11-21T06:28:01;100216.78;;;-0.07;100.00
65997;BME280;52765;52.258;21.052;2023-11-21T06:30:27;100222.97;;;-0.06;100.00
65997;BME280;52765;52.258;21.052;2023-11-21T06:32:54;100225.63;;;-0.06;100.00
65997;BME280;52765;52.258;21.052;2023-11-21T06:35:23;100228.66;;;0.02;100.00
65997;BME280;52765;52.258;21.052;2023-11-21T06:37:48;100226.00;;;0.02;100.00
65997;BME280;52765;52.258;21.052;2023-11-21T06:40:15;100228.75;;;0.01;100.00
65997;BME280;52765;52.258;21.052;2023-11-21T06:42:40;100225.03;;;0.03;100.00
65997;BME280;52765;52.258;21.052;2023-11-21T06:45:09;100232.72;;;0.08;100.00
65997;BME280;52765;52.258;21.052;2023-11-21T06:47:42;100241.91;;;0.02;100.00
65997;BME280;52765;52.258;21.052;2023-11-21T06:50:08;100244.53;;;0.02;100.00
65997;BME280;52765;52.258;21.052;2023-11-21T06:52:33;100250.72;;;0.17;100.00
65997;BME280;52765;52.258;21.052;2023-11-21T06:54:59;100256.84;;;0.17;100.00
65997;BME280;52765;52.258;21.052;2023-11-21T06:57:25;100246.44;;;0.00;100.00
65997;BME280;52765;52.258;21.052;2023-11-21T06:59:50;100246.63;;;0.11;100.00
65997;BME280;52765;52.258;21.052;2023-11-21T07:02:16;100255.44;;;0.26;100.00
65997;BME280;52765;52.258;21.052;2023-11-21T07:04:47;100260.38;;;0.32;100.00
65997;BME280;52765;52.258;21.052;2023-11-21T07:07:12;100266.34;;;0.36;100.00
65997;BME280;52765;52.258;21.052;2023-11-21T07:09:38;100266.16;;;0.39;100.00
65997;BME280;52765;52.258;21.052;2023-11-21T07:12:04;100261.69;;;0.40;100.00
65997;BME280;52765;52.258;21.052;2023-11-21T07:14:35;100265.41;;;0.37;100.00
65997;BME280;52765;52.258;21.052;2023-11-21T07:17:00;100270.13;;;0.32;100.00
65997;BME280;52765;52.258;21.052;2023-11-21T07:19:26;100272.31;;;0.25;100.00
65997;BME280;52765;52.258;21.052;2023-11-21T07:21:51;100277.78;;;0.22;100.00
65997;BME280;52765;52.258;21.052;2023-11-21T07:24:17;100280.63;;;0.19;100.00
65997;BME280;52765;52.258;21.052;2023-11-21T07:26:44;100281.38;;;0.21;100.00
65997;BME280;52765;52.258;21.052;2023-11-21T07:29:09;100290.06;;;0.23;100.00
65997;BME280;52765;52.258;21.052;2023-11-21T07:31:37;100292.13;;;0.18;100.00
65997;BME280;52765;52.258;21.052;2023-11-21T07:34:03;100291.38;;;0.16;100.00
65997;BME280;52765;52.258;21.052;2023-11-21T07:36:29;100271.44;;;0.10;100.00
65997;BME280;52765;52.258;21.052;2023-11-21T07:38:54;100288.91;;;0.13;100.00
65997;BME280;52765;52.258;21.052;2023-11-21T07:41:20;100285.81;;;0.21;100.00
65997;BME280;52765;52.258;21.052;2023-11-21T07:43:46;100297.28;;;0.35;100.00
65997;BME280;52765;52.258;21.052;2023-11-21T07:46:12;100287.34;;;0.39;100.00
65997;BME280;52765;52.258;21.052;2023-11-21T07:48:38;100287.53;;;0.36;100.00
65997;BME280;52765;52.258;21.052;2023-11-21T07:51:05;100286.69;;;0.35;100.00
65997;BME280;52765;52.258;21.052;2023-11-21T07:53:30;100290.19;;;0.36;100.00
65997;BME280;52765;52.258;21.052;2023-11-21T07:55:57;100293.41;;;0.41;100.00
65997;BME280;52765;52.258;21.052;2023-11-21T07:58:23;100295.78;;;0.46;100.00
65997;BME280;52765;52.258;21.052;2023-11-21T08:00:49;100293.22;;;0.44;100.00
65997;BME280;52765;52.258;21.052;2023-11-21T08:03:15;100292.47;;;0.57;100.00
65997;BME280;52765;52.258;21.052;2023-11-21T08:05:42;100282.53;;;0.60;100.00
65997;BME280;52765;52.258;21.052;2023-11-21T08:08:07;100297.75;;;0.57;100.00
65997;BME280;52765;52.258;21.052;2023-11-21T08:10:33;100301.66;;;0.51;100.00
65997;BME280;52765;52.258;21.052;2023-11-21T08:13:02;100297.75;;;0.57;100.00
65997;BME280;52765;52.258;21.052;2023-11-21T08:15:29;100295.91;;;0.59;100.00
65997;BME280;52765;52.258;21.052;2023-11-21T08:17:54;100306.03;;;0.52;100.00
65997;BME280;52765;52.258;21.052;2023-11-21T08:20:20;100303.94;;;0.57;100.00
65997;BME280;52765;52.258;21.052;2023-11-21T08:22:51;100303.53;;;0.63;100.00
65997;BME280;52765;52.258;21.052;2023-11-21T08:25:18;100313.97;;;0.66;100.00
65997;BME280;52765;52.258;21.052;2023-11-21T08:27:46;100310.84;;;0.60;100.00
65997;BME280;52765;52.258;21.052;2023-11-21T08:30:12;100320.59;;;0.59;100.00
65997;BME280;52765;52.258;21.052;2023-11-21T08:32:39;100316.31;;;0.57;100.00
65997;BME280;52765;52.258;21.052;2023-11-21T08:35:08;100327.03;;;0.55;100.00
65997;BME280;52765;52.258;21.052;2023-11-21T08:37:34;100321.06;;;0.51;100.00
65997;BME280;52765;52.258;21.052;2023-11-21T08:40:06;100331.88;;;0.48;100.00
65997;BME280;52765;52.258;21.052;2023-11-21T08:42:35;100320.88;;;0.40;100.00
65997;BME280;52765;52.258;21.052;2023-11-21T08:45:01;100335.91;;;0.40;100.00
65997;BME280;52765;52.258;21.052;2023-11-21T08:47:27;100333.34;;;0.38;100.00
65997;BME280;52765;52.258;21.052;2023-11-21T08:49:53;100336.88;;;0.39;100.00
65997;BME280;52765;52.258;21.052;2023-11-21T08:52:21;100337.72;;;0.39;100.00
65997;BME280;52765;52.258;21.052;2023-11-21T08:54:49;100330.16;;;0.47;100.00
65997;BME280;52765;52.258;21.052;2023-11-21T08:57:24;100328.06;;;0.52;100.00
65997;BME280;52765;52.258;21.052;2023-11-21T08:59:50;100350.59;;;0.60;100.00
65997;BME280;52765;52.258;21.052;2023-11-21T09:02:21;100341.53;;;0.64;100.00
65997;BME280;52765;52.258;21.052;2023-11-21T09:04:48;100344.38;;;0.61;100.00
65997;BME280;52765;52.258;21.052;2023-11-21T09:07:14;100348.91;;;0.59;100.00
65997;BME280;52765;52.258;21.052;2023-11-21T09:09:40;100348.63;;;0.63;100.00
65997;BME280;52765;52.258;21.052;2023-11-21T09:12:06;100357.03;;;0.70;100.00
65997;BME280;52765;52.258;21.052;2023-11-21T09:14:32;100357.16;;;0.68;99.95
65997;BME280;52765;52.258;21.052;2023-11-21T09:17:06;100355.28;;;0.70;100.00
65997;BME280;52765;52.258;21.052;2023-11-21T09:19:40;100356.59;;;0.78;100.00
65997;BME280;52765;52.258;21.052;2023-11-21T09:22:06;100359.06;;;0.81;100.00
65997;BME280;52765;52.258;21.052;2023-11-21T09:24:32;100360.66;;;0.83;100.00
65997;BME280;52765;52.258;21.052;2023-11-21T09:26:58;100369.56;;;0.82;99.45
65997;BME280;52765;52.258;21.052;2023-11-21T09:29:28;100364.00;;;0.87;100.00
65997;BME280;52765;52.258;21.052;2023-11-21T09:31:57;100367.13;;;0.94;100.00
65997;BME280;52765;52.258;21.052;2023-11-21T09:34:24;100370.16;;;0.87;98.99
65997;BME280;52765;52.258;21.052;2023-11-21T09:36:51;100370.41;;;0.83;99.75
65997;BME280;52765;52.258;21.052;2023-11-21T09:39:16;100369.88;;;0.92;100.00
65997;BME280;52765;52.258;21.052;2023-11-21T09:41:49;100369.47;;;0.98;100.00
65997;BME280;52765;52.258;21.052;2023-11-21T09:44:18;100366.16;;;0.95;98.84
65997;BME280;52765;52.258;21.052;2023-11-21T09:46:48;100366.53;;;1.03;98.45
65997;BME280;52765;52.258;21.052;2023-11-21T09:49:15;100360.09;;;1.07;98.62
65997;BME280;52765;52.258;21.052;2023-11-21T09:51:45;100360.38;;;1.17;99.35
65997;BME280;52765;52.258;21.052;2023-11-21T09:54:13;100363.88;;;1.17;97.52
65997;BME280;52765;52.258;21.052;2023-11-21T09:56:42;100368.81;;;1.23;96.97
65997;BME280;52765;52.258;21.052;2023-11-21T09:59:13;100367.75;;;1.26;97.11
65997;BME280;52765;52.258;21.052;2023-11-21T10:01:40;100371.47;;;1.23;96.38
65997;BME280;52765;52.258;21.052;2023-11-21T10:04:09;100372.59;;;1.19;95.29
65997;BME280;52765;52.258;21.052;2023-11-21T10:06:39;100376.31;;;1.02;95.38
65997;BME280;52765;52.258;21.052;2023-11-21T10:09:09;100388.16;;;0.97;96.71
65997;BME280;52765;52.258;21.052;2023-11-21T10:11:43;100375.75;;;0.97;96.81
65997;BME280;52765;52.258;21.052;2023-11-21T10:14:13;100376.47;;;0.85;96.71
65997;BME280;52765;52.258;21.052;2023-11-21T10:16:41;100374.28;;;0.91;98.35
65997;BME280;52765;52.258;21.052;2023-11-21T10:19:10;100383.97;;;0.92;97.85
65997;BME280;52765;52.258;21.052;2023-11-21T10:21:39;100383.88;;;0.94;97.91
65997;BME280;52765;52.258;21.052;2023-11-21T10:24:05;100381.50;;;0.89;98.08
65997;BME280;52765;52.258;21.052;2023-11-21T10:26:33;100388.81;;;1.00;98.25
65997;BME280;52765;52.258;21.052;2023-11-21T10:29:01;100391.56;;;0.99;97.92
65997;BME280;52765;52.258;21.052;2023-11-21T10:31:32;100391.19;;;0.90;98.08
65997;BME280;52765;52.258;21.052;2023-11-21T10:34:18;100386.06;;;0.87;97.47
65997;BME280;52765;52.258;21.052;2023-11-21T10:36:46;100362.25;;;0.71;97.66
65997;BME280;52765;52.258;21.052;2023-11-21T10:39:17;100375.44;;;0.73;98.01
65997;BME280;52765;52.258;21.052;2023-11-21T10:41:47;100386.34;;;0.83;99.17
65997;BME280;52765;52.258;21.052;2023-11-21T10:44:21;100394.94;;;0.86;99.23
65997;BME280;52765;52.258;21.052;2023-11-21T10:46:50;100388.34;;;0.94;99.03
65997;BME280;52765;52.258;21.052;2023-11-21T10:49:25;100401.13;;;1.01;97.52
65997;BME280;52765;52.258;21.052;2023-11-21T10:51:51;100386.44;;;0.96;97.50
65997;BME280;52765;52.258;21.052;2023-11-21T10:54:22;100391.28;;;0.89;97.19
65997;BME280;52765;52.258;21.052;2023-11-21T10:56:53;100404.44;;;0.90;96.53
65997;BME280;52765;52.258;21.052;2023-11-21T10:59:23;100399.44;;;1.00;96.35
65997;BME280;52765;52.258;21.052;2023-11-21T11:01:51;100402.34;;;0.96;96.38
65997;BME280;52765;52.258;21.052;2023-11-21T11:04:19;100408.22;;;1.01;96.49
65997;BME280;52765;52.258;21.052;2023-11-21T11:06:51;100404.34;;;1.06;97.12
65997;BME280;52765;52.258;21.052;2023-11-21T11:09:20;100406.91;;;1.08;97.36
65997;BME280;52765;52.258;21.052;2023-11-21T11:11:46;100403.31;;;1.09;95.50
65997;BME280;52765;52.258;21.052;2023-11-21T11:14:13;100396.00;;;0.98;95.72
65997;BME280;52765;52.258;21.052;2023-11-21T11:16:40;100401.88;;;0.89;96.80
65997;BME280;52765;52.258;21.052;2023-11-21T11:19:09;100399.69;;;0.81;98.34
65997;BME280;52765;52.258;21.052;2023-11-21T11:21:46;100402.16;;;0.84;100.00
65997;BME280;52765;52.258;21.052;2023-11-21T11:26:58;100412.50;;;0.89;99.76
65997;BME280;52765;52.258;21.052;2023-11-21T11:29:49;100417.53;;;0.94;99.88
65997;BME280;52765;52.258;21.052;2023-11-21T11:35:17;100426.28;;;0.65;98.39
65997;BME280;52765;52.258;21.052;2023-11-21T11:37:45;100422.84;;;0.63;99.38
65997;BME280;52765;52.258;21.052;2023-11-21T11:40:11;100425.06;;;0.71;99.92
65997;BME280;52765;52.258;21.052;2023-11-21T11:42:37;100420.69;;;0.70;100.00
65997;BME280;52765;52.258;21.052;2023-11-21T11:45:17;100411.50;;;0.61;99.98
65997;BME280;52765;52.258;21.052;2023-11-21T11:47:48;100422.84;;;0.63;100.00
65997;BME280;52765;52.258;21.052;2023-11-21T11:50:13;100422.75;;;0.65;100.00
65997;BME280;52765;52.258;21.052;2023-11-21T11:52:46;100416.78;;;0.61;100.00
65997;BME280;52765;52.258;21.052;2023-11-21T11:55:20;100418.25;;;0.67;100.00
65997;BME280;52765;52.258;21.052;2023-11-21T11:57:53;100417.00;;;0.72;100.00
65997;BME280;52765;52.258;21.052;2023-11-21T12:02:56;100422.00;;;0.63;99.66
65997;BME280;52765;52.258;21.052;2023-11-21T12:05:25;100421.78;;;0.51;99.76
65997;BME280;52765;52.258;21.052;2023-11-21T12:08:02;100426.06;;;0.54;100.00
65997;BME280;52765;52.258;21.052;2023-11-21T12:10:30;100421.53;;;0.56;100.00
65997;BME280;52765;52.258;21.052;2023-11-21T12:13:00;100427.03;;;0.67;100.00
65997;BME280;52765;52.258;21.052;2023-11-21T12:15:32;100430.66;;;0.81;99.22
65997;BME280;52765;52.258;21.052;2023-11-21T12:17:58;100438.72;;;0.79;97.88
65997;BME280;52765;52.258;21.052;2023-11-21T12:20:40;100426.88;;;0.85;97.57
65997;BME280;52765;52.258;21.052;2023-11-21T12:23:10;100431.81;;;0.91;97.94
65997;BME280;52765;52.258;21.052;2023-11-21T12:25:37;100439.59;;;0.94;97.18
65997;BME280;52765;52.258;21.052;2023-11-21T12:28:03;100428.13;;;0.94;97.47
65997;BME280;52765;52.258;21.052;2023-11-21T12:30:30;100445.28;;;1.02;97.24
65997;BME280;52765;52.258;21.052;2023-11-21T12:32:57;100445.28;;;1.02;96.25
65997;BME280;52765;52.258;21.052;2023-11-21T12:35:28;100451.53;;;1.01;96.08
65997;BME280;52765;52.258;21.052;2023-11-21T12:37:55;100456.16;;;0.98;96.48
65997;BME280;52765;52.258;21.052;2023-11-21T12:40:24;100453.50;;;0.98;95.59
65997;BME280;52765;52.258;21.052;2023-11-21T12:42:55;100455.97;;;1.01;95.78
65997;BME280;52765;52.258;21.052;2023-11-21T12:45:22;100456.06;;;0.99;96.34
65997;BME280;52765;52.258;21.052;2023-11-21T12:47:51;100457.13;;;0.97;97.05
65997;BME280;52765;52.258;21.052;2023-11-21T12:50:24;100454.56;;;0.95;96.52
65997;BME280;52765;52.258;21.052;2023-11-21T12:53:03;100450.19;;;0.94;97.48
65997;BME280;52765;52.258;21.052;2023-11-21T12:55:33;100448.28;;;0.96;96.65